createdAt,value
2018-02-24T00:00:39.108Z,0.00
2018-02-24T00:01:39.103Z,0.00
2018-02-24T00:02:39.113Z,0.00
2018-02-24T00:03:39.122Z,0.00
2018-02-24T00:04:39.131Z,0.00
2018-02-24T00:05:39.144Z,0.00
2018-02-24T00:06:39.147Z,0.00
2018-02-24T00:07:39.202Z,0.00
2018-02-24T00:09:39.190Z,0.00
2018-02-24T00:10:39.220Z,0.00
2018-02-24T00:11:39.205Z,0.00
2018-02-24T00:12:39.198Z,0.00
2018-02-24T00:13:39.202Z,0.00
2018-02-24T00:14:39.247Z,0.00
2018-02-24T00:15:39.230Z,0.00
2018-02-24T00:16:39.222Z,0.00
2018-02-24T00:17:39.233Z,0.00
2018-02-24T00:18:39.255Z,0.00
2018-02-24T00:19:39.272Z,0.00
2018-02-24T00:20:39.317Z,0.00
2018-02-24T00:21:39.262Z,0.00
2018-02-24T00:22:39.268Z,0.00
2018-02-24T00:23:39.277Z,0.00
2018-02-24T00:24:39.286Z,0.00
2018-02-24T00:25:39.296Z,0.00
2018-02-24T00:26:39.300Z,0.00
2018-02-24T00:27:39.317Z,0.00
2018-02-24T00:28:39.322Z,0.00
2018-02-24T00:29:39.327Z,0.00
2018-02-24T00:30:39.336Z,0.00
2018-02-24T00:31:39.342Z,0.00
2018-02-24T00:32:39.351Z,0.00
2018-02-24T00:33:39.354Z,0.00
2018-02-24T00:34:39.364Z,0.00
2018-02-24T00:35:39.369Z,0.00
2018-02-24T00:36:39.380Z,0.00
2018-02-24T00:37:39.637Z,0.00
2018-02-24T00:38:39.499Z,0.00
2018-02-24T00:39:39.465Z,0.00
2018-02-24T00:40:39.436Z,0.00
2018-02-24T00:41:39.424Z,0.00
2018-02-24T00:42:39.425Z,0.00
2018-02-24T00:43:39.432Z,0.00
2018-02-24T00:44:39.459Z,0.00
2018-02-24T00:45:39.447Z,0.00
2018-02-24T00:46:39.465Z,0.00
2018-02-24T00:47:39.468Z,0.00
2018-02-24T00:48:39.475Z,0.00
2018-02-24T00:49:39.477Z,0.00
2018-02-24T00:50:39.486Z,0.00
2018-02-24T00:51:39.496Z,0.00
2018-02-24T00:52:39.503Z,0.00
2018-02-24T00:53:39.511Z,0.00
2018-02-24T00:54:39.552Z,0.00
2018-02-24T00:55:39.535Z,0.00
2018-02-24T00:56:39.537Z,0.00
2018-02-24T00:57:39.545Z,0.00
2018-02-24T00:58:39.552Z,0.00
2018-02-24T00:59:39.560Z,0.00
2018-02-24T01:00:39.603Z,0.00
2018-02-24T01:01:39.580Z,0.00
2018-02-24T01:02:39.581Z,0.00
2018-02-24T01:03:39.618Z,0.00
2018-02-24T01:04:39.620Z,0.00
2018-02-24T01:05:39.617Z,0.00
2018-02-24T01:06:39.613Z,0.00
2018-02-24T01:07:39.620Z,0.00
2018-02-24T01:08:39.629Z,0.00
2018-02-24T01:09:39.640Z,0.00
2018-02-24T01:10:39.676Z,0.00
2018-02-24T01:11:39.659Z,0.00
2018-02-24T01:12:39.673Z,0.00
2018-02-24T01:13:39.677Z,0.00
2018-02-24T01:14:39.677Z,0.00
2018-02-24T01:15:39.697Z,0.00
2018-02-24T01:16:39.694Z,0.00
2018-02-24T01:17:39.731Z,0.00
2018-02-24T01:18:39.705Z,0.00
2018-02-24T01:19:39.717Z,0.00
2018-02-24T01:20:39.740Z,0.00
2018-02-24T01:21:39.729Z,0.00
2018-02-24T01:22:39.741Z,0.00
2018-02-24T01:23:39.747Z,0.00
2018-02-24T01:24:39.753Z,0.00
2018-02-24T01:25:39.760Z,0.00
2018-02-24T01:26:39.767Z,0.00
2018-02-24T01:27:39.774Z,0.00
2018-02-24T01:28:39.791Z,0.00
2018-02-24T01:29:39.797Z,0.00
2018-02-24T01:30:39.799Z,0.00
2018-02-24T01:31:39.810Z,0.00
2018-02-24T01:32:39.813Z,0.00
2018-02-24T01:33:39.827Z,0.00
2018-02-24T01:34:39.828Z,0.00
2018-02-24T01:35:39.843Z,0.00
2018-02-24T01:36:39.845Z,0.00
2018-02-24T01:37:39.851Z,0.00
2018-02-24T01:38:39.856Z,0.00
2018-02-24T01:39:39.973Z,0.00
2018-02-24T01:40:39.865Z,0.00
2018-02-24T01:41:39.979Z,0.00
2018-02-24T01:42:39.936Z,0.00
2018-02-24T01:43:39.889Z,0.00
2018-02-24T01:44:39.896Z,0.00
2018-02-24T01:45:39.906Z,0.00
2018-02-24T01:46:39.909Z,0.00
2018-02-24T01:47:39.919Z,0.00
2018-02-24T01:48:39.927Z,0.00
2018-02-24T01:49:39.943Z,0.00
2018-02-24T01:50:39.945Z,0.00
2018-02-24T01:51:39.950Z,0.00
2018-02-24T01:52:39.958Z,0.00
2018-02-24T01:53:39.964Z,0.00
2018-02-24T01:54:39.973Z,0.00
2018-02-24T01:55:39.982Z,0.00
2018-02-24T01:56:39.988Z,0.00
2018-02-24T01:57:40.000Z,0.00
2018-02-24T01:58:40.001Z,0.00
2018-02-24T01:59:40.011Z,0.00
2018-02-24T02:00:40.017Z,0.00
2018-02-24T02:01:40.026Z,0.00
2018-02-24T02:02:40.039Z,0.00
2018-02-24T02:03:40.053Z,0.00
2018-02-24T02:04:40.047Z,0.00
2018-02-24T02:05:40.055Z,0.00
2018-02-24T02:06:40.064Z,0.00
2018-02-24T02:07:40.071Z,0.00
2018-02-24T02:08:40.078Z,0.00
2018-02-24T02:09:40.090Z,0.00
2018-02-24T02:10:40.096Z,0.00
2018-02-24T02:11:40.101Z,0.00
2018-02-24T02:12:40.109Z,0.00
2018-02-24T02:14:40.516Z,0.00
2018-02-24T02:15:40.365Z,0.00
2018-02-24T02:16:40.137Z,0.00
2018-02-24T02:17:40.145Z,0.00
2018-02-24T02:18:40.154Z,0.00
2018-02-24T02:19:40.161Z,0.00
2018-02-24T02:20:40.168Z,0.00
2018-02-24T02:21:40.177Z,0.00
2018-02-24T02:22:40.183Z,0.00
2018-02-24T02:23:40.188Z,0.00
2018-02-24T02:24:40.197Z,0.00
2018-02-24T02:25:40.203Z,0.00
2018-02-24T02:26:40.212Z,0.00
2018-02-24T02:27:40.221Z,0.00
2018-02-24T02:28:40.227Z,0.00
2018-02-24T02:29:40.238Z,0.00
2018-02-24T02:30:40.243Z,0.00
2018-02-24T02:31:40.250Z,0.00
2018-02-24T02:32:40.257Z,0.00
2018-02-24T02:33:40.265Z,0.00
2018-02-24T02:34:40.276Z,0.00
2018-02-24T02:35:40.283Z,0.00
2018-02-24T02:36:40.288Z,0.00
2018-02-24T02:37:40.294Z,0.00
2018-02-24T02:38:40.301Z,0.00
2018-02-24T02:39:40.310Z,0.00
2018-02-24T02:40:40.319Z,0.00
2018-02-24T02:41:40.327Z,0.00
2018-02-24T02:42:40.337Z,0.00
2018-02-24T02:43:40.340Z,0.00
2018-02-24T02:44:40.352Z,0.00
2018-02-24T02:45:40.354Z,0.00
2018-02-24T02:48:40.572Z,0.00
2018-02-24T02:49:40.384Z,0.00
2018-02-24T02:50:40.390Z,0.00
2018-02-24T02:51:40.408Z,0.00
2018-02-24T02:52:40.416Z,0.00
2018-02-24T02:53:40.418Z,0.00
2018-02-24T02:54:40.422Z,0.00
2018-02-24T02:55:40.431Z,0.00
2018-02-24T02:56:40.437Z,0.00
2018-02-24T02:57:40.451Z,0.00
2018-02-24T02:58:40.450Z,0.00
2018-02-24T02:59:40.457Z,0.00
2018-02-24T03:00:40.474Z,0.00
2018-02-24T03:01:40.481Z,0.00
2018-02-24T03:02:40.486Z,0.00
2018-02-24T03:03:40.487Z,0.00
2018-02-24T03:04:40.496Z,0.00
2018-02-24T03:05:40.526Z,0.00
2018-02-24T03:06:40.514Z,0.00
2018-02-24T03:07:40.519Z,0.00
2018-02-24T03:08:40.524Z,0.00
2018-02-24T03:09:40.532Z,0.00
2018-02-24T03:10:40.540Z,0.00
2018-02-24T03:11:40.548Z,0.00
2018-02-24T03:12:40.557Z,0.00
2018-02-24T03:13:40.562Z,0.00
2018-02-24T03:14:40.574Z,0.00
2018-02-24T03:15:40.578Z,0.00
2018-02-24T03:16:40.587Z,0.00
2018-02-24T03:17:40.603Z,0.00
2018-02-24T03:18:40.598Z,0.00
2018-02-24T03:19:40.616Z,0.00
2018-02-24T03:20:40.625Z,0.00
2018-02-24T03:21:40.909Z,0.00
2018-02-24T03:22:40.640Z,0.00
2018-02-24T03:23:40.638Z,0.00
2018-02-24T03:24:40.645Z,0.00
2018-02-24T03:25:40.650Z,0.00
2018-02-24T03:26:40.657Z,0.00
2018-02-24T03:27:40.666Z,0.00
2018-02-24T03:28:40.678Z,0.00
2018-02-24T03:29:40.680Z,0.00
2018-02-24T03:30:40.693Z,0.00
2018-02-24T03:31:40.704Z,0.00
2018-02-24T03:32:40.703Z,0.00
2018-02-24T03:33:40.712Z,0.00
2018-02-24T03:34:40.717Z,0.00
2018-02-24T03:35:40.726Z,0.00
2018-02-24T03:36:40.734Z,0.00
2018-02-24T03:37:40.739Z,0.00
2018-02-24T03:38:40.749Z,0.00
2018-02-24T03:39:40.857Z,0.00
2018-02-24T03:40:40.763Z,0.00
2018-02-24T03:41:40.774Z,0.00
2018-02-24T03:42:40.776Z,0.00
2018-02-24T03:43:40.784Z,0.00
2018-02-24T03:44:40.818Z,0.00
2018-02-24T03:45:40.800Z,0.00
2018-02-24T03:46:40.817Z,0.00
2018-02-24T03:47:40.821Z,0.00
2018-02-24T03:48:40.822Z,0.00
2018-02-24T03:49:41.035Z,0.00
2018-02-24T03:51:41.389Z,0.00
2018-02-24T03:52:40.858Z,0.00
2018-02-24T03:53:40.863Z,0.00
2018-02-24T03:54:40.866Z,0.00
2018-02-24T03:55:40.879Z,0.00
2018-02-24T03:56:40.884Z,0.00
2018-02-24T03:57:40.891Z,0.00
2018-02-24T03:58:40.895Z,0.00
2018-02-24T03:59:40.905Z,0.00
2018-02-24T04:00:40.911Z,0.00
2018-02-24T04:01:40.919Z,0.00
2018-02-24T04:02:40.925Z,0.00
2018-02-24T04:03:40.933Z,0.00
2018-02-24T04:04:40.940Z,0.00
2018-02-24T04:05:40.948Z,0.00
2018-02-24T04:06:40.953Z,0.00
2018-02-24T04:07:40.963Z,0.00
2018-02-24T04:08:40.974Z,0.00
2018-02-24T04:09:40.975Z,0.00
2018-02-24T04:10:40.983Z,0.00
2018-02-24T04:11:40.991Z,0.00
2018-02-24T04:12:41.003Z,0.00
2018-02-24T04:13:41.009Z,0.00
2018-02-24T04:14:41.012Z,0.00
2018-02-24T04:15:41.022Z,0.00
2018-02-24T04:16:41.031Z,0.00
2018-02-24T04:17:41.041Z,0.00
2018-02-24T04:18:41.041Z,0.00
2018-02-24T04:19:41.051Z,0.00
2018-02-24T04:20:41.065Z,0.00
2018-02-24T04:21:41.066Z,0.00
2018-02-24T04:22:41.072Z,0.00
2018-02-24T04:24:41.331Z,0.00
2018-02-24T04:26:41.156Z,0.00
2018-02-24T04:27:41.108Z,0.00
2018-02-24T04:28:41.124Z,0.00
2018-02-24T04:29:41.124Z,0.00
2018-02-24T04:30:41.132Z,0.00
2018-02-24T04:31:41.141Z,0.00
2018-02-24T04:32:41.149Z,0.00
2018-02-24T04:33:41.161Z,0.00
2018-02-24T04:34:41.160Z,0.00
2018-02-24T04:35:41.168Z,0.00
2018-02-24T04:36:41.176Z,0.00
2018-02-24T04:37:41.189Z,0.00
2018-02-24T04:38:41.198Z,0.00
2018-02-24T04:39:41.207Z,0.00
2018-02-24T04:40:41.207Z,0.00
2018-02-24T04:41:41.212Z,0.00
2018-02-24T04:42:41.217Z,0.00
2018-02-24T04:43:41.227Z,0.00
2018-02-24T04:44:41.231Z,0.00
2018-02-24T04:45:41.240Z,0.00
2018-02-24T04:46:41.251Z,0.00
2018-02-24T04:47:41.264Z,0.00
2018-02-24T04:48:41.261Z,0.00
2018-02-24T04:49:41.268Z,0.00
2018-02-24T04:50:41.277Z,0.00
2018-02-24T04:51:41.285Z,0.00
2018-02-24T04:52:41.293Z,0.00
2018-02-24T04:53:41.297Z,0.00
2018-02-24T04:54:41.356Z,0.00
2018-02-24T04:55:41.367Z,0.00
2018-02-24T04:56:41.629Z,0.00
2018-02-24T04:57:41.946Z,0.00
2018-02-24T04:58:41.335Z,0.00
2018-02-24T04:59:41.341Z,0.00
2018-02-24T05:00:41.354Z,0.00
2018-02-24T05:01:41.360Z,0.00
2018-02-24T05:02:41.398Z,0.00
2018-02-24T05:03:41.374Z,0.00
2018-02-24T05:04:41.381Z,0.00
2018-02-24T05:05:41.387Z,0.00
2018-02-24T05:06:41.395Z,0.00
2018-02-24T05:07:41.401Z,0.00
2018-02-24T05:08:41.415Z,0.00
2018-02-24T05:09:41.412Z,0.00
2018-02-24T05:10:41.423Z,0.00
2018-02-24T05:11:41.429Z,0.00
2018-02-24T05:12:41.441Z,0.00
2018-02-24T05:13:41.459Z,0.00
2018-02-24T05:14:41.450Z,0.00
2018-02-24T05:15:41.459Z,0.00
2018-02-24T05:16:41.466Z,0.00
2018-02-24T05:17:41.473Z,0.00
2018-02-24T05:18:41.480Z,0.00
2018-02-24T05:19:41.486Z,0.00
2018-02-24T05:20:41.494Z,0.00
2018-02-24T05:21:41.500Z,0.00
2018-02-24T05:22:41.507Z,0.00
2018-02-24T05:23:41.517Z,0.00
2018-02-24T05:25:41.528Z,0.00
2018-02-24T05:26:41.593Z,0.00
2018-02-24T05:27:41.545Z,0.00
2018-02-24T05:28:42.065Z,0.00
2018-02-24T05:29:41.577Z,0.00
2018-02-24T05:30:42.010Z,0.00
2018-02-24T05:31:41.575Z,0.00
2018-02-24T05:32:41.578Z,0.00
2018-02-24T05:33:41.594Z,0.00
2018-02-24T05:34:41.594Z,0.00
2018-02-24T05:35:41.601Z,0.00
2018-02-24T05:36:41.612Z,0.00
2018-02-24T05:37:41.614Z,0.00
2018-02-24T05:38:41.622Z,0.00
2018-02-24T05:39:41.630Z,0.00
2018-02-24T05:40:41.644Z,0.00
2018-02-24T05:41:41.643Z,0.00
2018-02-24T05:42:41.653Z,0.00
2018-02-24T05:43:41.658Z,0.00
2018-02-24T05:44:41.674Z,0.00
2018-02-24T05:45:41.673Z,0.00
2018-02-24T05:47:41.693Z,0.00
2018-02-24T05:48:41.697Z,0.00
2018-02-24T05:49:41.703Z,4.00
2018-02-24T05:50:41.709Z,4.00
2018-02-24T05:51:41.729Z,4.00
2018-02-24T05:52:41.730Z,4.00
2018-02-24T05:53:41.732Z,4.00
2018-02-24T05:54:41.738Z,4.00
2018-02-24T05:55:41.749Z,0.00
2018-02-24T05:56:41.772Z,0.00
2018-02-24T05:58:41.770Z,4.00
2018-02-24T05:59:41.773Z,0.00
2018-02-24T06:00:41.941Z,4.00
2018-02-24T06:01:42.192Z,8.00
2018-02-24T06:02:41.815Z,4.00
2018-02-24T06:03:41.810Z,4.00
2018-02-24T06:04:41.812Z,4.00
2018-02-24T06:05:41.824Z,8.00
2018-02-24T06:06:41.829Z,4.00
2018-02-24T06:07:41.838Z,8.00
2018-02-24T06:08:41.841Z,8.00
2018-02-24T06:09:41.851Z,12.00
2018-02-24T06:10:41.861Z,16.00
2018-02-24T06:11:41.867Z,20.00
2018-02-24T06:12:41.870Z,20.00
2018-02-24T06:13:41.877Z,24.00
2018-02-24T06:14:41.885Z,28.00
2018-02-24T06:15:41.890Z,32.00
2018-02-24T06:16:41.898Z,36.00
2018-02-24T06:17:41.905Z,44.00
2018-02-24T06:18:41.913Z,48.00
2018-02-24T06:19:41.922Z,52.00
2018-02-24T06:20:41.925Z,60.00
2018-02-24T06:21:41.934Z,68.00
2018-02-24T06:22:41.941Z,76.00
2018-02-24T06:23:41.948Z,88.00
2018-02-24T06:24:41.959Z,92.00
2018-02-24T06:25:41.964Z,104.00
2018-02-24T06:26:41.970Z,112.00
2018-02-24T06:27:41.975Z,128.00
2018-02-24T06:28:41.983Z,136.00
2018-02-24T06:29:41.990Z,152.00
2018-02-24T06:30:42.055Z,160.00
2018-02-24T06:31:42.016Z,172.00
2018-02-24T06:32:42.113Z,188.00
2018-02-24T06:33:42.021Z,204.00
2018-02-24T06:34:42.030Z,216.00
2018-02-24T06:35:42.034Z,228.00
2018-02-24T06:36:42.050Z,248.00
2018-02-24T06:37:42.053Z,264.00
2018-02-24T06:38:42.054Z,280.00
2018-02-24T06:39:42.062Z,292.00
2018-02-24T06:40:42.068Z,308.00
2018-02-24T06:41:42.076Z,328.00
2018-02-24T06:42:42.081Z,348.00
2018-02-24T06:43:42.095Z,364.00
2018-02-24T06:44:42.098Z,384.00
2018-02-24T06:45:42.105Z,396.00
2018-02-24T06:46:42.120Z,416.00
2018-02-24T06:47:42.121Z,436.00
2018-02-24T06:48:42.130Z,452.00
2018-02-24T06:49:42.134Z,468.00
2018-02-24T06:50:42.142Z,488.00
2018-02-24T06:51:42.154Z,504.00
2018-02-24T06:52:42.167Z,520.00
2018-02-24T06:53:42.165Z,540.00
2018-02-24T06:54:42.224Z,560.00
2018-02-24T06:55:42.209Z,580.00
2018-02-24T06:56:42.190Z,596.00
2018-02-24T06:57:42.191Z,612.00
2018-02-24T06:58:42.207Z,632.00
2018-02-24T06:59:42.208Z,644.00
2018-02-24T07:00:42.218Z,652.00
2018-02-24T07:01:42.222Z,668.00
2018-02-24T07:02:42.243Z,688.00
2018-02-24T07:03:42.337Z,708.00
2018-02-24T07:04:42.469Z,728.00
2018-02-24T07:05:42.482Z,744.00
2018-02-24T07:06:42.257Z,768.00
2018-02-24T07:07:42.266Z,796.00
2018-02-24T07:08:42.272Z,832.00
2018-02-24T07:09:42.282Z,872.00
2018-02-24T07:10:42.285Z,904.00
2018-02-24T07:11:42.294Z,928.00
2018-02-24T07:12:42.301Z,964.00
2018-02-24T07:13:42.307Z,960.00
2018-02-24T07:14:42.315Z,948.00
2018-02-24T07:15:42.480Z,944.00
2018-02-24T07:16:42.333Z,940.00
2018-02-24T07:17:42.336Z,1000.00
2018-02-24T07:18:42.343Z,1060.00
2018-02-24T07:19:42.352Z,1044.00
2018-02-24T07:20:42.363Z,1076.00
2018-02-24T07:21:42.394Z,1124.00
2018-02-24T07:22:42.398Z,1156.00
2018-02-24T07:23:42.382Z,1188.00
2018-02-24T07:24:42.388Z,1216.00
2018-02-24T07:25:42.396Z,1236.00
2018-02-24T07:26:42.405Z,1260.00
2018-02-24T07:27:42.411Z,1280.00
2018-02-24T07:28:42.417Z,1300.00
2018-02-24T07:29:42.430Z,1320.00
2018-02-24T07:30:42.439Z,1332.00
2018-02-24T07:31:42.443Z,1340.00
2018-02-24T07:32:42.449Z,1372.00
2018-02-24T07:33:42.452Z,1396.00
2018-02-24T07:34:42.610Z,1412.00
2018-02-24T07:36:43.142Z,1352.00
2018-02-24T07:37:43.090Z,1272.00
2018-02-24T07:38:42.495Z,1296.00
2018-02-24T07:39:42.496Z,1396.00
2018-02-24T07:40:42.503Z,1484.00
2018-02-24T07:41:42.511Z,1540.00
2018-02-24T07:42:42.535Z,1564.00
2018-02-24T07:43:42.526Z,1612.00
2018-02-24T07:44:42.534Z,1640.00
2018-02-24T07:45:42.537Z,1672.00
2018-02-24T07:46:42.559Z,1704.00
2018-02-24T07:47:42.562Z,1724.00
2018-02-24T07:48:42.563Z,1748.00
2018-02-24T07:49:42.570Z,1760.00
2018-02-24T07:50:42.576Z,1784.00
2018-02-24T07:51:42.590Z,1796.00
2018-02-24T07:52:42.601Z,1796.00
2018-02-24T07:53:42.617Z,1784.00
2018-02-24T07:54:42.606Z,1728.00
2018-02-24T07:55:42.712Z,1704.00
2018-02-24T07:56:42.620Z,1680.00
2018-02-24T07:57:42.634Z,1796.00
2018-02-24T07:58:42.648Z,1836.00
2018-02-24T07:59:42.661Z,1924.00
2018-02-24T08:00:42.656Z,1968.00
2018-02-24T08:01:42.667Z,1992.00
2018-02-24T08:02:42.666Z,2048.00
2018-02-24T08:03:42.675Z,2068.00
2018-02-24T08:04:42.716Z,2084.00
2018-02-24T08:05:42.686Z,2132.00
2018-02-24T08:06:42.694Z,2116.00
2018-02-24T08:07:42.704Z,2084.00
2018-02-24T08:09:43.061Z,2012.00
2018-02-24T08:10:42.778Z,2020.00
2018-02-24T08:11:42.739Z,2072.00
2018-02-24T08:12:42.762Z,2092.00
2018-02-24T08:13:42.753Z,2180.00
2018-02-24T08:14:42.758Z,2340.00
2018-02-24T08:15:42.760Z,2328.00
2018-02-24T08:16:42.945Z,2240.00
2018-02-24T08:17:42.785Z,2216.00
2018-02-24T08:18:42.784Z,2316.00
2018-02-24T08:19:42.801Z,2440.00
2018-02-24T08:20:42.808Z,2468.00
2018-02-24T08:21:42.813Z,2472.00
2018-02-24T08:22:42.817Z,2852.00
2018-02-24T08:23:42.827Z,3496.00
2018-02-24T08:24:42.836Z,3000.00
2018-02-24T08:25:42.884Z,2536.00
2018-02-24T08:26:42.847Z,2556.00
2018-02-24T08:27:42.860Z,2584.00
2018-02-24T08:28:42.862Z,2620.00
2018-02-24T08:29:42.869Z,2636.00
2018-02-24T08:30:42.878Z,2648.00
2018-02-24T08:31:42.916Z,2668.00
2018-02-24T08:32:42.903Z,2672.00
2018-02-24T08:33:42.901Z,2688.00
2018-02-24T08:34:42.913Z,2688.00
2018-02-24T08:35:42.920Z,2704.00
2018-02-24T08:36:42.926Z,2652.00
2018-02-24T08:37:42.956Z,2720.00
2018-02-24T08:38:42.999Z,2732.00
2018-02-24T08:40:43.216Z,2748.00
2018-02-24T08:41:43.394Z,2756.00
2018-02-24T08:42:42.973Z,2776.00
2018-02-24T08:43:42.981Z,2772.00
2018-02-24T08:44:43.038Z,2780.00
2018-02-24T08:45:42.993Z,2796.00
2018-02-24T08:47:43.242Z,2796.00
2018-02-24T08:48:43.026Z,2812.00
2018-02-24T08:49:43.031Z,2832.00
2018-02-24T08:50:43.032Z,2840.00
2018-02-24T08:51:43.042Z,2844.00
2018-02-24T08:52:43.106Z,2840.00
2018-02-24T08:53:43.060Z,2864.00
2018-02-24T08:54:43.080Z,2880.00
2018-02-24T08:56:43.089Z,2880.00
2018-02-24T08:57:43.119Z,2900.00
2018-02-24T08:58:43.103Z,2896.00
2018-02-24T08:59:43.108Z,2896.00
2018-02-24T09:00:43.112Z,2896.00
2018-02-24T09:01:43.125Z,2896.00
2018-02-24T09:02:43.126Z,2900.00
2018-02-24T09:03:43.132Z,2920.00
2018-02-24T09:04:43.146Z,2912.00
2018-02-24T09:05:43.152Z,2916.00
2018-02-24T09:06:43.186Z,2924.00
2018-02-24T09:07:43.168Z,2928.00
2018-02-24T09:08:43.172Z,2932.00
2018-02-24T09:09:43.184Z,2932.00
2018-02-24T09:10:43.192Z,2940.00
2018-02-24T09:11:43.299Z,2948.00
2018-02-24T09:12:43.324Z,2944.00
2018-02-24T09:13:43.275Z,2948.00
2018-02-24T09:14:43.222Z,2884.00
2018-02-24T09:15:43.268Z,2912.00
2018-02-24T09:16:43.608Z,2908.00
2018-02-24T09:17:43.256Z,2876.00
2018-02-24T09:18:43.254Z,2936.00
2018-02-24T09:19:43.263Z,2944.00
2018-02-24T09:20:43.270Z,2956.00
2018-02-24T09:21:43.281Z,2952.00
2018-02-24T09:22:43.290Z,2964.00
2018-02-24T09:23:43.329Z,2956.00
2018-02-24T09:24:43.329Z,2964.00
2018-02-24T09:25:43.312Z,2976.00
2018-02-24T09:26:43.323Z,2972.00
2018-02-24T09:27:43.329Z,2992.00
2018-02-24T09:28:43.338Z,3004.00
2018-02-24T09:29:43.344Z,2976.00
2018-02-24T09:30:43.372Z,2992.00
2018-02-24T09:31:43.361Z,2996.00
2018-02-24T09:32:43.375Z,3000.00
2018-02-24T09:33:43.380Z,2988.00
2018-02-24T09:34:43.383Z,3016.00
2018-02-24T09:35:43.400Z,2936.00
2018-02-24T09:36:43.404Z,3008.00
2018-02-24T09:37:43.413Z,3008.00
2018-02-24T09:38:43.437Z,3032.00
2018-02-24T09:39:43.426Z,3080.00
2018-02-24T09:40:43.538Z,3092.00
2018-02-24T09:42:43.728Z,3076.00
2018-02-24T09:43:43.453Z,3092.00
2018-02-24T09:44:43.459Z,3116.00
2018-02-24T09:45:44.732Z,3144.00
2018-02-24T09:46:43.479Z,3144.00
2018-02-24T09:47:43.507Z,3152.00
2018-02-24T09:48:43.495Z,3152.00
2018-02-24T09:49:43.795Z,3176.00
2018-02-24T09:50:43.537Z,3180.00
2018-02-24T09:51:44.221Z,3248.00
2018-02-24T09:52:43.525Z,3200.00
2018-02-24T09:53:43.539Z,3232.00
2018-02-24T09:54:43.543Z,3212.00
2018-02-24T09:55:43.554Z,3260.00
2018-02-24T09:56:43.560Z,3272.00
2018-02-24T09:57:43.568Z,3244.00
2018-02-24T09:58:43.614Z,3332.00
2018-02-24T09:59:43.589Z,3352.00
2018-02-24T10:00:43.602Z,3364.00
2018-02-24T10:01:43.614Z,3444.00
2018-02-24T10:02:43.616Z,3424.00
2018-02-24T10:03:43.623Z,3436.00
2018-02-24T10:04:43.632Z,3384.00
2018-02-24T10:05:43.640Z,3380.00
2018-02-24T10:06:43.645Z,3412.00
2018-02-24T10:07:43.654Z,3500.00
2018-02-24T10:08:44.138Z,3404.00
2018-02-24T10:09:43.672Z,3472.00
2018-02-24T10:10:43.682Z,3360.00
2018-02-24T10:11:43.688Z,3504.00
2018-02-24T10:12:43.701Z,3480.00
2018-02-24T10:13:43.910Z,3496.00
2018-02-24T10:14:44.064Z,3500.00
2018-02-24T10:15:43.755Z,3480.00
2018-02-24T10:16:44.206Z,3440.00
2018-02-24T10:17:43.757Z,3480.00
2018-02-24T10:18:43.762Z,3452.00
2018-02-24T10:19:43.761Z,3476.00
2018-02-24T10:21:43.980Z,3420.00
2018-02-24T10:22:43.791Z,3492.00
2018-02-24T10:23:43.795Z,3488.00
2018-02-24T10:24:43.809Z,3564.00
2018-02-24T10:25:43.813Z,3556.00
2018-02-24T10:26:43.825Z,3052.00
2018-02-24T10:27:43.828Z,3516.00
2018-02-24T10:28:43.838Z,3548.00
2018-02-24T10:29:43.867Z,3500.00
2018-02-24T10:30:43.855Z,3520.00
2018-02-24T10:31:43.868Z,3440.00
2018-02-24T10:32:43.889Z,3528.00
2018-02-24T10:33:43.882Z,3516.00
2018-02-24T10:34:43.897Z,3544.00
2018-02-24T10:35:43.900Z,3532.00
2018-02-24T10:36:43.911Z,3576.00
2018-02-24T10:37:43.917Z,3500.00
2018-02-24T10:38:43.948Z,3516.00
2018-02-24T10:39:43.937Z,3524.00
2018-02-24T10:40:43.946Z,3556.00
2018-02-24T10:41:43.954Z,3532.00
2018-02-24T10:42:43.965Z,3564.00
2018-02-24T10:43:43.975Z,3500.00
2018-02-24T10:44:44.001Z,3540.00
2018-02-24T10:45:43.995Z,3536.00
2018-02-24T10:47:44.367Z,3604.00
2018-02-24T10:48:44.069Z,3628.00
2018-02-24T10:49:44.037Z,3660.00
2018-02-24T10:50:44.038Z,3732.00
2018-02-24T10:51:44.049Z,3800.00
2018-02-24T10:52:44.053Z,3896.00
2018-02-24T10:53:44.070Z,3980.00
2018-02-24T10:54:44.075Z,4136.00
2018-02-24T10:55:44.085Z,4036.00
2018-02-24T10:56:44.094Z,4092.00
2018-02-24T10:57:44.104Z,4144.00
2018-02-24T10:58:44.116Z,3784.00
2018-02-24T10:59:44.120Z,4000.00
2018-02-24T11:00:44.131Z,3976.00
2018-02-24T11:01:44.137Z,4248.00
2018-02-24T11:02:44.146Z,4684.00
2018-02-24T11:03:44.156Z,3984.00
2018-02-24T11:04:44.166Z,4576.00
2018-02-24T11:05:44.180Z,5260.00
2018-02-24T11:06:44.187Z,3488.00
2018-02-24T11:07:44.195Z,3880.00
2018-02-24T11:08:44.205Z,4932.00
2018-02-24T11:09:44.212Z,5460.00
2018-02-24T11:10:44.224Z,4844.00
2018-02-24T11:11:44.249Z,4944.00
2018-02-24T11:12:44.244Z,5036.00
2018-02-24T11:13:44.259Z,5408.00
2018-02-24T11:14:44.264Z,5028.00
2018-02-24T11:15:44.288Z,4620.00
2018-02-24T11:16:44.282Z,4284.00
2018-02-24T11:17:44.304Z,4032.00
2018-02-24T11:18:44.364Z,3896.00
2018-02-24T11:19:44.419Z,3812.00
2018-02-24T11:20:44.728Z,3668.00
2018-02-24T11:21:44.331Z,3656.00
2018-02-24T11:22:44.351Z,5408.00
2018-02-24T11:23:44.350Z,5248.00
2018-02-24T11:24:44.360Z,5140.00
2018-02-24T11:25:44.402Z,6480.00
2018-02-24T11:26:44.389Z,6964.00
2018-02-24T11:27:44.391Z,6664.00
2018-02-24T11:28:44.400Z,6512.00
2018-02-24T11:29:44.409Z,6400.00
2018-02-24T11:30:44.426Z,6588.00
2018-02-24T11:31:44.431Z,6556.00
2018-02-24T11:32:44.444Z,6704.00
2018-02-24T11:33:44.460Z,6780.00
2018-02-24T11:34:44.462Z,7200.00
2018-02-24T11:35:44.477Z,7204.00
2018-02-24T11:36:44.486Z,6732.00
2018-02-24T11:37:44.503Z,6404.00
2018-02-24T11:38:44.509Z,6476.00
2018-02-24T11:39:44.515Z,5912.00
2018-02-24T11:40:44.533Z,5272.00
2018-02-24T11:41:44.533Z,6788.00
2018-02-24T11:42:44.546Z,6688.00
2018-02-24T11:43:44.557Z,7152.00
2018-02-24T11:44:44.592Z,6308.00
2018-02-24T11:45:44.577Z,6672.00
2018-02-24T11:46:44.590Z,5824.00
2018-02-24T11:47:44.616Z,6276.00
2018-02-24T11:49:44.720Z,6092.00
2018-02-24T11:50:44.816Z,6068.00
2018-02-24T11:51:44.642Z,5960.00
2018-02-24T11:52:44.652Z,5172.00
2018-02-24T11:53:44.665Z,6400.00
2018-02-24T11:54:44.673Z,5116.00
2018-02-24T11:55:44.688Z,5296.00
2018-02-24T11:56:44.697Z,5252.00
2018-02-24T11:57:44.710Z,4676.00
2018-02-24T11:58:44.720Z,6012.00
2018-02-24T11:59:44.728Z,5256.00
2018-02-24T12:00:44.746Z,6060.00
2018-02-24T12:01:44.753Z,6960.00
2018-02-24T12:02:44.761Z,5600.00
2018-02-24T12:03:44.772Z,7028.00
2018-02-24T12:04:44.784Z,6836.00
2018-02-24T12:05:44.802Z,5480.00
2018-02-24T12:06:44.805Z,6484.00
2018-02-24T12:07:44.929Z,5648.00
2018-02-24T12:08:44.830Z,6804.00
2018-02-24T12:09:44.837Z,5320.00
2018-02-24T12:10:44.849Z,4784.00
2018-02-24T12:11:44.863Z,4816.00
2018-02-24T12:12:44.872Z,4636.00
2018-02-24T12:13:44.884Z,4180.00
2018-02-24T12:14:44.892Z,3792.00
2018-02-24T12:15:44.908Z,4152.00
2018-02-24T12:16:44.916Z,4072.00
2018-02-24T12:17:44.925Z,4356.00
2018-02-24T12:18:44.937Z,4428.00
2018-02-24T12:19:45.048Z,4292.00
2018-02-24T12:21:44.977Z,4320.00
2018-02-24T12:22:44.984Z,4228.00
2018-02-24T12:23:45.347Z,4272.00
2018-02-24T12:24:45.002Z,4668.00
2018-02-24T12:25:45.024Z,4948.00
2018-02-24T12:26:45.026Z,5324.00
2018-02-24T12:27:45.038Z,6060.00
2018-02-24T12:28:45.044Z,5000.00
2018-02-24T12:29:45.057Z,4548.00
2018-02-24T12:30:45.068Z,5052.00
2018-02-24T12:31:45.081Z,4840.00
2018-02-24T12:32:45.086Z,3880.00
2018-02-24T12:33:45.094Z,3836.00
2018-02-24T12:34:45.114Z,4848.00
2018-02-24T12:35:45.117Z,3500.00
2018-02-24T12:36:45.130Z,3244.00
2018-02-24T12:37:45.144Z,3848.00
2018-02-24T12:38:45.149Z,3644.00
2018-02-24T12:39:45.163Z,3072.00
2018-02-24T12:40:45.174Z,3116.00
2018-02-24T12:41:45.186Z,3220.00
2018-02-24T12:42:45.188Z,4044.00
2018-02-24T12:43:45.204Z,3572.00
2018-02-24T12:44:45.211Z,3464.00
2018-02-24T12:45:45.221Z,4004.00
2018-02-24T12:46:45.297Z,3868.00
2018-02-24T12:47:45.243Z,3488.00
2018-02-24T12:48:45.253Z,3704.00
2018-02-24T12:49:45.262Z,3704.00
2018-02-24T12:50:45.277Z,4180.00
2018-02-24T12:51:45.283Z,5028.00
2018-02-24T12:52:45.294Z,5100.00
2018-02-24T12:53:45.308Z,5256.00
2018-02-24T12:55:45.706Z,6640.00
2018-02-24T12:56:45.358Z,5272.00
2018-02-24T12:57:45.351Z,5004.00
2018-02-24T12:58:45.353Z,4348.00
2018-02-24T12:59:45.369Z,5024.00
2018-02-24T13:00:45.376Z,4456.00
2018-02-24T13:01:45.385Z,3516.00